Latest Weather Observations for Mandurah

IDW60901

Issued at 9:01 pm WST Monday 30 March 2015 (issued every 10 minutes, with the page automatically refreshed every 10 minutes)

About weather observations | Map of Perth area stations | Latest observations for Perth area | Other Formats
Station Details ID: 009977 Name: MANDURAH Lat: -32.52 Lon: 115.71 Height: 3.0 m
Data from the previous 72 hours. | See also: Recent months at Mandurah
Date/Time
WST
Tmp

°C
App
Tmp
°C
Dew
Point
°C
Rel
Hum
%
Delta-T

°C
Wind Press
QNH
hPa
Press
MSL
hPa
Rain
since
9 am
mm
Dir
 
Spd
km/h
Gust
km/h
Spd
kts
Gust
kts
30/09:00pm 20.4 21.3 16.0 76 2.6 SSW 6 9 3 5 1017.8 1017.8 0.0
30/08:30pm 20.4 21.3 16.0 76 2.6 SSW 6 11 3 6 1017.6 1017.6 0.0
30/08:00pm 20.5 21.2 16.1 76 2.6 SW 7 13 4 7 1017.3 1017.3 0.0
30/07:30pm 20.6 21.0 16.4 77 2.5 SSW 9 17 5 9 1016.8 1016.8 0.0
30/07:00pm 20.8 20.6 16.6 77 2.5 SSW 13 20 7 11 1016.4 1016.4 0.0
30/06:30pm 21.0 21.4 17.2 79 2.3 SSW 11 20 6 11 1016.2 1016.2 0.0
30/06:00pm 21.4 21.8 17.2 77 2.6 SSW 11 22 6 12 1016.2 1016.2 0.0
30/05:30pm 21.7 21.1 16.6 73 3.1 SSW 15 20 8 11 1015.9 1015.9 0.0
30/05:00pm 22.0 21.6 16.1 69 3.6 SSW 13 22 7 12 1016.1 1016.1 0.0
30/04:30pm 22.4 22.6 16.7 70 3.5 SW 11 17 6 9 1015.6 1015.6 0.0
30/04:00pm 22.3 22.2 17.0 72 3.2 SW 13 20 7 11 1015.6 1015.6 0.0
30/03:30pm 22.8 21.9 17.7 73 3.2 SW 19 24 10 13 1015.3 1015.3 0.0
30/03:00pm 23.0 22.0 16.5 67 4.0 SW 17 20 9 11 1015.0 1015.0 0.0
30/02:30pm 23.9 23.3 14.6 56 5.5 S 11 19 6 10 1014.8 1014.8 0.0
30/02:00pm 23.7 22.9 16.2 63 4.6 SW 15 20 8 11 1014.9 1014.9 0.0
30/01:30pm 23.9 24.2 16.9 65 4.3 SW 11 15 6 8 1014.7 1014.7 0.0
30/01:00pm 23.4 22.6 16.0 63 4.5 SW 15 20 8 11 1014.9 1014.9 0.0
30/12:30pm 24.3 23.1 15.0 56 5.6 WSW 15 20 8 11 1015.1 1015.1 0.0
30/12:00pm 24.5 23.8 16.5 61 4.9 WSW 15 20 8 11 1015.3 1015.3 0.0
30/11:30am 25.2 25.3 17.4 62 4.9 WSW 13 19 7 10 1015.5 1015.5 0.0
30/11:00am 25.2 25.8 16.9 60 5.1 SW 9 15 5 8 1015.8 1015.8 0.0
30/10:30am 24.5 24.8 15.1 55 5.6 WSW 7 11 4 6 1016.2 1016.2 0.0
30/10:00am 23.1 22.1 13.3 54 5.7 SW 11 17 6 9 1016.5 1016.5 0.0
30/09:30am 22.0 21.3 13.1 57 5.1 WSW 9 15 5 8 1016.2 1016.2 0.0
30/09:00am 21.5 20.8 12.1 55 5.3 W 7 13 4 7 1016.2 1016.2 0.0
30/08:30am 20.2 20.6 11.4 57 4.8 CALM 0 0 0 0 1016.2 1016.2 0.0
30/08:00am 19.3 19.3 11.3 60 4.4 SSE 2 4 1 2 1015.8 1015.8 0.0
30/07:30am 18.2 17.5 11.3 64 3.8 SE 6 9 3 5 1015.5 1015.5 0.0
30/07:00am 18.1 17.6 11.9 67 3.4 SE 6 7 3 4 1015.6 1015.6 0.0
30/06:30am 18.3 18.1 13.6 74 2.7 SSE 7 11 4 6 1015.7 1015.7 0.0
30/06:00am 18.6 17.6 13.5 72 2.9 SSE 11 15 6 8 1015.6 1015.6 0.0
30/05:30am 18.6 17.5 13.2 71 3.0 SSE 11 15 6 8 1015.3 1015.3 0.0
30/05:00am 18.8 17.1 12.5 67 3.5 SSE 13 17 7 9 1015.1 1015.1 0.0
30/04:30am 18.9 17.8 13.1 69 3.3 S 11 15 6 8 1015.1 1015.1 0.0
30/04:00am 18.8 18.2 13.4 71 3.1 S 9 11 5 6 1015.2 1015.2 0.0
30/03:30am 18.7 18.8 14.4 76 2.5 S 7 9 4 5 1015.2 1015.2 0.0
30/03:00am 18.8 19.2 14.7 77 2.4 S 6 9 3 5 1015.3 1015.3 0.0
30/02:30am 19.2 19.3 14.5 74 2.7 SSE 7 9 4 5 1015.6 1015.6 0.0
30/02:00am 19.3 19.3 13.7 70 3.2 SSE 6 9 3 5 1015.8 1015.8 0.0
30/01:30am 19.1 19.5 14.8 76 2.5 S 6 7 3 4 1016.1 1016.1 0.0
30/01:00am 19.5 20.4 15.2 76 2.5 SSE 4 6 2 3 1016.5 1016.5 0.0
30/12:30am 19.7 20.8 14.5 72 3.0 SSE 2 4 1 2 1016.6 1016.6 0.0
30/12:00am 19.8 20.0 14.2 70 3.2 SSE 6 7 3 4 1016.8 1016.8 0.0
 
Date/Time
WST
Tmp

°C
App
Tmp
°C
Dew
Point
°C
Rel
Hum
%
Delta-T

°C
Wind Press
QNH
hPa
Press
MSL
hPa
Rain
since
9 am
mm
Dir
 
Spd
km/h
Gust
km/h
Spd
kts
Gust
kts
29/11:30pm 20.1 20.6 14.0 68 3.5 S 4 6 2 3 1016.9 1016.9 0.0
29/11:00pm 20.8 20.5 13.3 62 4.3 SSE 7 9 4 5 1017.0 1017.0 0.0
29/10:30pm 20.9 20.8 13.4 62 4.3 SSE 6 9 3 5 1017.2 1017.2 0.0
29/10:00pm 21.1 20.9 13.5 62 4.4 SSE 7 9 4 5 1017.4 1017.4 0.0
29/09:30pm 21.3 20.6 13.2 60 4.6 SSE 9 13 5 7 1017.7 1017.7 0.0
29/09:00pm 21.5 20.4 13.2 59 4.7 SSE 11 13 6 7 1017.9 1017.9 0.0
29/08:30pm 21.7 20.3 13.3 59 4.8 SSE 13 19 7 10 1017.7 1017.7 0.0
29/08:00pm 22.0 21.2 14.1 61 4.6 SSE 11 19 6 10 1017.8 1017.8 0.0
29/07:30pm 22.2 20.8 13.5 57 5.0 SSE 13 19 7 10 1017.7 1017.7 0.0
29/07:00pm 22.5 21.6 13.8 58 5.0 SSE 11 15 6 8 1017.6 1017.6 0.0
29/06:30pm 22.8 21.5 13.8 57 5.2 S 13 19 7 10 1017.5 1017.5 0.0
29/06:00pm 23.1 21.8 13.8 55 5.4 SSW 13 22 7 12 1017.5 1017.5 0.0
29/05:30pm 24.1 23.1 14.5 55 5.7 S 13 19 7 10 1017.3 1017.3 0.0
29/05:00pm 24.8 23.9 13.7 50 6.5 S 11 17 6 9 1017.3 1017.3 0.0
29/04:30pm 25.3 24.3 13.5 48 6.9 SSW 11 19 6 10 1017.2 1017.2 0.0
29/04:00pm 24.4 21.9 13.6 51 6.3 SW 19 26 10 14 1017.2 1017.2 0.0
29/03:30pm 24.0 22.0 15.0 57 5.4 SW 19 26 10 14 1017.2 1017.2 0.0
29/03:00pm 24.7 22.7 15.6 57 5.5 WSW 20 28 11 15 1017.4 1017.4 0.0
29/02:30pm 25.0 23.1 15.3 55 5.8 WSW 19 24 10 13 1017.7 1017.7 0.0
29/02:00pm 25.6 24.1 15.3 53 6.2 WSW 17 20 9 11 1017.9 1017.9 0.0
29/01:30pm 25.7 24.2 15.4 53 6.2 WSW 17 22 9 12 1018.1 1018.1 0.0
29/01:00pm 24.8 23.2 14.9 54 5.9 WSW 17 24 9 13 1018.5 1018.5 0.0
29/12:30pm 25.3 24.2 15.3 54 6.0 WSW 15 19 8 10 1018.9 1018.9 0.0
29/12:00pm 25.0 24.1 14.8 53 6.1 WSW 13 17 7 9 1019.2 1019.2 0.0
29/11:30am 25.1 24.9 14.6 52 6.3 WSW 9 13 5 7 1019.6 1019.6 0.0
29/11:00am 24.3 24.1 14.7 55 5.7 WSW 9 13 5 7 1020.0 1020.0 0.0
29/10:30am 23.4 23.5 14.4 57 5.3 WSW 7 13 4 7 1020.4 1020.4 0.0
29/10:00am 22.3 22.3 14.2 60 4.7 WNW 7 9 4 5 1020.6 1020.6 0.0
29/09:30am 21.0 20.9 13.4 62 4.4 WNW 6 6 3 3 1020.8 1020.8 0.0
29/09:00am 20.2 20.5 13.4 65 3.9 SE 4 6 2 3 1020.8 1020.8 0.0
29/08:30am 18.8 19.7 13.0 69 3.3 CALM 0 0 0 0 1020.7 1020.7 0.0
29/08:00am 17.9 18.7 12.6 71 2.9 CALM 0 0 0 0 1020.7 1020.7 0.0
29/07:30am 17.3 17.2 12.2 72 2.8 SE 4 7 2 4 1020.4 1020.4 0.0
29/07:00am 16.3 16.6 12.3 77 2.2 SE 2 4 1 2 1020.1 1020.1 0.0
29/06:30am 16.2 15.6 11.8 75 2.4 E 6 9 3 5 1019.8 1019.8 0.0
29/06:00am 15.7 15.8 11.5 76 2.3 SSE 2 4 1 2 1019.6 1019.6 0.0
29/05:30am 15.7 15.5 11.7 77 2.2 SE 4 6 2 3 1019.5 1019.5 0.0
29/05:00am 16.1 15.7 12.3 78 2.1 SE 6 7 3 4 1019.4 1019.4 0.0
29/04:30am 16.5 16.1 12.5 77 2.2 ESE 6 7 3 4 1019.4 1019.4 0.0
29/04:00am 17.5 17.0 12.8 74 2.6 SE 7 9 4 5 1019.4 1019.4 0.0
29/03:30am 17.8 17.6 13.7 77 2.3 SSE 7 11 4 6 1019.7 1019.7 0.0
29/03:00am 17.9 17.5 14.2 79 2.1 SSE 9 13 5 7 1019.6 1019.6 0.0
29/02:30am 18.4 17.8 14.7 79 2.1 SSE 11 17 6 9 1019.6 1019.6 0.0
29/02:00am 18.4 18.2 14.7 79 2.1 SSE 9 17 5 9 1019.6 1019.6 0.0
29/01:30am 18.5 17.6 14.8 79 2.1 SSE 13 20 7 11 1019.8 1019.8 0.0
29/01:00am 18.5 18.2 15.4 82 1.8 SSE 11 17 6 9 1019.8 1019.8 0.0
29/12:30am 18.9 19.0 16.5 86 1.4 SSE 11 19 6 10 1019.9 1019.9 0.0
29/12:00am 19.2 19.2 16.2 83 1.8 SSE 11 15 6 8 1019.8 1019.8 0.0
 
Date/Time
WST
Tmp

°C
App
Tmp
°C
Dew
Point
°C
Rel
Hum
%
Delta-T

°C
Wind Press
QNH
hPa
Press
MSL
hPa
Rain
since
9 am
mm
Dir
 
Spd
km/h
Gust
km/h
Spd
kts
Gust
kts
28/11:30pm 19.4 19.5 16.6 84 1.7 SSE 11 15 6 8 1019.9 1019.9 0.0
28/11:00pm 18.9 19.7 16.3 85 1.5 SE 7 11 4 6 1020.0 1020.0 0.0
28/10:30pm 19.4 20.6 16.8 85 1.6 SE 6 9 3 5 1020.1 1020.1 0.0
28/10:00pm 19.8 21.4 16.8 83 1.8 SSE 4 7 2 4 1020.4 1020.4 0.0
28/09:30pm 19.9 20.8 16.7 82 1.9 SSE 7 11 4 6 1020.5 1020.5 0.0
28/09:00pm 20.3 20.9 16.7 80 2.2 SSE 9 15 5 8 1020.4 1020.4 0.0
28/08:30pm 20.6 20.3 16.4 77 2.5 S 13 17 7 9 1020.1 1020.1 0.0
28/08:00pm 20.8 20.4 16.2 75 2.8 S 13 20 7 11 1020.1 1020.1 0.0
28/07:30pm 20.8 19.7 15.4 71 3.2 S 15 24 8 13 1019.7 1019.7 0.0
28/07:00pm 20.9 19.7 15.0 69 3.5 S 15 24 8 13 1019.5 1019.5 0.0
28/06:30pm 21.1 19.7 14.5 66 3.9 SSW 15 24 8 13 1019.4 1019.4 0.0
28/06:00pm 21.5 19.5 13.9 62 4.4 SSW 17 24 9 13 1019.2 1019.2 0.0
28/05:30pm 22.0 20.3 14.6 63 4.4 SSW 17 24 9 13 1019.1 1019.1 0.0
28/05:00pm 22.4 20.6 14.5 61 4.6 SSW 17 24 9 13 1019.0 1019.0 0.0
28/04:30pm 22.7 20.2 13.5 56 5.3 SSW 19 26 10 14 1018.9 1018.9 0.0
28/04:00pm 23.0 21.2 13.2 54 5.6 SW 15 26 8 14 1018.9 1018.9 0.0
28/03:30pm 23.4 20.9 13.6 54 5.7 SW 19 28 10 15 1018.9 1018.9 0.0
28/03:00pm 23.4 20.2 13.0 52 6.0 SW 22 32 12 17 1019.0 1019.0 0.0
28/02:30pm 23.6 20.8 13.2 52 6.0 WSW 20 32 11 17 1019.2 1019.2 0.0
28/02:00pm 23.1 19.2 12.1 50 6.2 WSW 24 33 13 18 1019.3 1019.3 0.0
28/01:30pm 23.5 19.9 13.1 52 6.0 SW 24 33 13 18 1019.5 1019.5 0.0
28/01:00pm 24.6 22.4 13.2 49 6.6 WSW 17 26 9 14 1019.8 1019.8 0.0
28/12:30pm 24.4 24.0 13.0 49 6.6 S 7 15 4 8 1020.2 1020.2 0.0
28/12:00pm 23.5 22.4 13.1 52 6.0 SSW 11 17 6 9 1020.6 1020.6 0.0
28/11:30am 22.6 21.2 13.4 56 5.3 SSW 13 17 7 9 1021.0 1021.0 0.0
28/11:00am 22.2 20.7 13.0 56 5.3 SSE 13 20 7 11 1021.2 1021.2 0.0
28/10:30am 20.9 19.5 13.4 62 4.3 SSE 13 20 7 11 1021.4 1021.4 0.0
28/10:00am 20.3 19.3 13.5 65 3.9 SSE 11 15 6 8 1021.3 1021.3 0.0
28/09:30am 19.3 17.9 13.5 69 3.3 SSE 13 19 7 10 1021.3 1021.3 0.0
28/09:00am 17.8 16.4 13.3 75 2.5 SSE 13 19 7 10 1021.4 1021.4 0.0
28/08:30am 17.1 15.7 13.4 79 2.1 SSE 13 20 7 11 1021.3 1021.3 0.0
28/08:00am 16.7 15.1 13.8 83 1.6 SSE 15 20 8 11 1021.2 1021.2 0.0
28/07:30am 16.6 15.4 15.0 90 0.9 SSE 15 19 8 10 1020.9 1020.9 0.0
28/07:00am 17.4 17.3 16.9 97 0.3 S 13 20 7 11 1020.6 1020.6 0.0
28/06:30am 16.6 16.8 14.8 89 1.0 SE 7 11 4 6 1020.5 1020.5 0.0
28/06:00am 17.1 17.3 14.7 86 1.4 SSE 7 11 4 6 1020.3 1020.3 0.0
28/05:30am 16.9 17.1 14.7 87 1.3 S 7 9 4 5 1019.9 1019.9 0.0
28/05:00am 17.2 17.4 14.8 86 1.4 S 7 9 4 5 1019.7 1019.7 0.0
28/04:30am 17.4 17.6 14.7 84 1.6 SSE 7 9 4 5 1019.4 1019.4 0.0
28/04:00am 17.4 17.6 14.7 84 1.6 SSE 7 11 4 6 1019.2 1019.2 0.0
28/03:30am 17.4 17.3 13.9 80 2.0 SSE 7 11 4 6 1019.0 1019.0 0.0
28/03:00am 17.3 16.8 12.6 74 2.6 SE 7 9 4 5 1018.9 1018.9 0.0
28/02:30am 17.6 17.6 12.5 72 2.8 SSE 4 6 2 3 1019.0 1019.0 0.0
28/02:00am 17.7 17.8 12.8 73 2.7 E 4 6 2 3 1019.0 1019.0 0.0
28/01:30am 17.4 17.6 13.1 76 2.4 ESE 4 6 2 3 1019.2 1019.2 0.0
28/01:00am 18.1 18.0 13.4 74 2.7 SE 6 7 3 4 1019.1 1019.1 0.0
28/12:30am 18.1 18.5 13.8 76 2.4 SE 4 6 2 3 1019.2 1019.2 0.0
28/12:00am 19.0 19.6 15.7 81 1.9 SE 7 9 4 5 1019.3 1019.3 0.0
 
Date/Time
WST
Tmp

°C
App
Tmp
°C
Dew
Point
°C
Rel
Hum
%
Delta-T

°C
Wind Press
QNH
hPa
Press
MSL
hPa
Rain
since
9 am
mm
Dir
 
Spd
km/h
Gust
km/h
Spd
kts
Gust
kts
27/11:30pm 19.6 20.6 16.4 82 1.9 SE 6 9 3 5 1019.2 1019.2 0.0
27/11:00pm 20.0 21.3 17.6 86 1.5 SE 7 9 4 5 1019.3 1019.3 0.0
27/10:30pm 20.2 21.7 17.6 85 1.6 SSE 6 7 3 4 1019.5 1019.5 0.0
27/10:00pm 20.4 21.8 17.4 83 1.8 SSE 6 9 3 5 1019.7 1019.7 0.0
27/09:30pm 20.8 22.4 18.2 85 1.6 SSE 7 11 4 6 1020.0 1020.0 0.0

Latest Capital City Observations: Canberra | Sydney | Melbourne | Brisbane | Adelaide | Perth | Hobart | Darwin

Other Formats:

Comma delimited format used in spreadsheet applications
http://www.bom.gov.au/fwo/IDW60901/IDW60901.94605.axf

JavaScript Object Notation format (JSON) in row-major order
http://www.bom.gov.au/fwo/IDW60901/IDW60901.94605.json